Time;durP1;ratioP1;P1;durP2;ratioP2;P2;SDS_P1;SDS_P2;PMS_P1;PMS_P2;Temp;Humidity;BMP_temperature;BMP_pressure;BME280_temperature;BME280_humidity;BME280_pressure;Samples;Min_cycle;Max_cycle;Signal;HPM_P1;HPM_P2
2022/02/14 00:02:00;;;;;;;4.73;3.60;;;;;;;;;;4980677;28;20034;-58
2022/02/14 00:04:26;;;;;;;4.13;3.20;;;;;;;;;;4982720;28;20273;-64
2022/02/14 00:06:51;;;;;;;4.85;3.28;;;;;;;;;;4982567;28;20556;-64
2022/02/14 00:09:16;;;;;;;4.32;3.30;;;;;;;;;;4982418;28;20113;-62
2022/02/14 00:11:41;;;;;;;4.83;3.20;;;;;;;;;;4962569;28;20022;-63
2022/02/14 00:14:06;;;;;;;4.47;3.40;;;;;;;;;;4982525;28;20278;-61
2022/02/14 00:16:32;;;;;;;5.00;3.43;;;;;;;;;;4981955;28;20048;-60
2022/02/14 00:18:57;;;;;;;5.38;3.28;;;;;;;;;;4981941;28;20105;-63
2022/02/14 00:21:22;;;;;;;4.47;3.03;;;;;;;;;;4978181;28;20061;-63
2022/02/14 00:23:48;;;;;;;4.57;3.23;;;;;;;;;;4983015;28;20117;-59
2022/02/14 00:26:13;;;;;;;3.83;3.00;;;;;;;;;;4982159;28;20344;-63
2022/02/14 00:28:38;;;;;;;4.53;3.10;;;;;;;;;;4961654;28;20630;-61
2022/02/14 00:31:03;;;;;;;4.50;3.37;;;;;;;;;;4974492;28;20276;-61
2022/02/14 00:33:28;;;;;;;4.43;3.33;;;;;;;;;;4981756;28;20384;-63
2022/02/14 00:35:54;;;;;;;3.60;2.93;;;;;;;;;;4982225;28;20105;-61
2022/02/14 00:38:20;;;;;;;4.53;3.30;;;;;;;;;;4982293;28;20277;-61
2022/02/14 00:40:45;;;;;;;4.15;3.10;;;;;;;;;;4981918;28;20324;-61
2022/02/14 00:43:10;;;;;;;4.40;3.10;;;;;;;;;;4994793;28;20047;-60
2022/02/14 00:45:35;;;;;;;4.90;3.47;;;;;;;;;;4986102;28;20281;-62
2022/02/14 00:48:02;;;;;;;5.30;3.22;;;;;;;;;;4981706;28;20039;-61
2022/02/14 00:50:27;;;;;;;4.55;3.10;;;;;;;;;;4982021;28;20109;-64
2022/02/14 00:52:52;;;;;;;3.87;3.20;;;;;;;;;;4980408;28;20101;-62
2022/02/14 00:55:18;;;;;;;4.20;2.93;;;;;;;;;;4981633;28;20261;-62
2022/02/14 00:57:43;;;;;;;4.40;3.30;;;;;;;;;;4981798;28;20057;-63
2022/02/14 01:00:10;;;;;;;4.72;2.90;;;;;;;;;;4981871;28;20014;-62
2022/02/14 01:02:35;;;;;;;4.88;3.20;;;;;;;;;;4980833;28;20414;-63
2022/02/14 01:05:00;;;;;;;5.63;3.30;;;;;;;;;;4982359;28;20065;-61
2022/02/14 01:07:26;;;;;;;3.67;2.70;;;;;;;;;;4964488;28;20025;-59
2022/02/14 01:09:51;;;;;;;4.00;2.75;;;;;;;;;;4981268;28;20026;-58
2022/02/14 01:12:16;;;;;;;3.83;2.70;;;;;;;;;;4981755;28;20555;-62
2022/02/14 01:14:41;;;;;;;3.60;3.00;;;;;;;;;;4981806;28;20273;-64
2022/02/14 01:17:07;;;;;;;3.73;2.80;;;;;;;;;;4983183;28;20353;-64
2022/02/14 01:19:32;;;;;;;4.00;2.80;;;;;;;;;;4985901;28;20261;-59
2022/02/14 01:21:57;;;;;;;3.60;2.80;;;;;;;;;;4985144;28;20073;-56
2022/02/14 01:24:22;;;;;;;4.20;2.90;;;;;;;;;;4985119;28;20313;-63
2022/02/14 01:26:48;;;;;;;4.70;2.90;;;;;;;;;;4985068;28;20841;-62
2022/02/14 01:29:13;;;;;;;3.33;2.63;;;;;;;;;;4985276;28;20930;-62
2022/02/14 01:31:38;;;;;;;4.43;3.03;;;;;;;;;;4984302;28;20754;-63
2022/02/14 01:34:03;;;;;;;3.67;2.97;;;;;;;;;;4985029;28;20671;-63
2022/02/14 01:36:28;;;;;;;3.60;2.60;;;;;;;;;;4985165;28;20921;-60
2022/02/14 01:38:54;;;;;;;3.87;2.87;;;;;;;;;;4985158;28;20764;-57
2022/02/14 01:41:19;;;;;;;4.05;2.55;;;;;;;;;;4984699;28;20488;-60
2022/02/14 01:43:44;;;;;;;3.53;2.50;;;;;;;;;;5000634;28;20034;-62
2022/02/14 01:46:10;;;;;;;4.40;3.10;;;;;;;;;;4967046;28;20280;-62
2022/02/14 01:48:35;;;;;;;3.97;2.60;;;;;;;;;;4984238;28;20415;-62
2022/02/14 01:51:00;;;;;;;4.63;3.00;;;;;;;;;;4985073;28;20050;-62
2022/02/14 01:53:26;;;;;;;4.10;2.95;;;;;;;;;;4967313;28;20069;-61
2022/02/14 01:55:51;;;;;;;3.90;2.87;;;;;;;;;;4983951;28;20026;-61
2022/02/14 01:58:17;;;;;;;3.60;3.03;;;;;;;;;;4984896;28;20280;-62
2022/02/14 02:00:44;;;;;;;4.60;3.33;;;;;;;;;;4984772;28;20425;-60
2022/02/14 02:03:09;;;;;;;3.95;3.20;;;;;;;;;;4996248;28;20367;-62
2022/02/14 02:05:35;;;;;;;4.10;3.07;;;;;;;;;;4988569;28;20018;-60
2022/02/14 02:08:00;;;;;;;3.50;2.60;;;;;;;;;;4953183;28;20313;-62
2022/02/14 02:10:26;;;;;;;4.40;3.00;;;;;;;;;;4947275;28;20057;-61
2022/02/14 02:12:52;;;;;;;4.28;3.05;;;;;;;;;;4957092;28;20049;-61
2022/02/14 02:15:17;;;;;;;3.60;2.53;;;;;;;;;;4984132;28;20015;-60
2022/02/14 02:17:43;;;;;;;3.60;2.70;;;;;;;;;;4966018;28;20060;-56
2022/02/14 02:20:09;;;;;;;3.00;2.40;;;;;;;;;;4984141;28;20264;-62
2022/02/14 02:22:34;;;;;;;4.20;2.75;;;;;;;;;;4991139;28;20034;-60
2022/02/14 02:24:59;;;;;;;3.47;2.70;;;;;;;;;;4992638;28;20040;-60
2022/02/14 02:27:28;;;;;;;4.00;2.87;;;;;;;;;;4984024;28;20253;-61
2022/02/14 02:29:53;;;;;;;4.60;2.70;;;;;;;;;;4983219;28;20278;-62
2022/02/14 02:32:19;;;;;;;4.10;3.20;;;;;;;;;;4983026;28;20532;-61
2022/02/14 02:34:45;;;;;;;4.32;3.00;;;;;;;;;;4984196;28;20060;-61
2022/02/14 02:37:11;;;;;;;3.55;2.67;;;;;;;;;;4983670;28;20049;-62
2022/02/14 02:39:36;;;;;;;4.28;2.70;;;;;;;;;;4983507;28;20018;-61
2022/02/14 02:42:03;;;;;;;3.30;2.60;;;;;;;;;;4986216;28;20033;-61
2022/02/14 02:44:29;;;;;;;3.75;2.60;;;;;;;;;;4996716;28;20042;-63
2022/02/14 02:46:54;;;;;;;4.72;2.67;;;;;;;;;;4982841;28;20054;-61
2022/02/14 02:49:21;;;;;;;4.70;2.70;;;;;;;;;;4983527;28;20034;-61
2022/02/14 02:51:47;;;;;;;3.67;2.55;;;;;;;;;;4983662;28;20023;-60
2022/02/14 02:54:12;;;;;;;4.30;2.60;;;;;;;;;;4983257;28;20087;-60
2022/02/14 02:56:38;;;;;;;3.15;2.25;;;;;;;;;;4983477;28;20018;-60
2022/02/14 02:59:04;;;;;;;3.80;2.58;;;;;;;;;;4983509;28;20023;-62
2022/02/14 03:01:29;;;;;;;4.15;2.83;;;;;;;;;;4962573;28;20019;-62
2022/02/14 03:03:54;;;;;;;3.72;2.35;;;;;;;;;;4997157;28;20030;-61
2022/02/14 03:06:20;;;;;;;3.73;2.50;;;;;;;;;;4983459;28;20034;-56
2022/02/14 03:08:45;;;;;;;3.67;2.72;;;;;;;;;;4974711;28;20807;-59
2022/02/14 03:11:10;;;;;;;3.28;2.67;;;;;;;;;;4975775;28;20070;-60
2022/02/14 03:13:36;;;;;;;3.70;2.40;;;;;;;;;;4983197;28;20424;-60
2022/02/14 03:16:01;;;;;;;4.30;3.03;;;;;;;;;;4983117;28;20798;-62
2022/02/14 03:18:26;;;;;;;4.23;2.93;;;;;;;;;;4982826;28;20281;-62
2022/02/14 03:20:51;;;;;;;3.10;2.37;;;;;;;;;;4983277;28;20014;-60
2022/02/14 03:23:17;;;;;;;3.95;2.65;;;;;;;;;;4995892;28;20104;-62
2022/02/14 03:25:42;;;;;;;3.88;2.50;;;;;;;;;;4986129;28;20026;-58
2022/02/14 03:28:07;;;;;;;4.13;2.90;;;;;;;;;;4979129;28;20019;-60
2022/02/14 03:30:32;;;;;;;3.87;2.57;;;;;;;;;;4970413;28;20352;-62
2022/02/14 03:32:57;;;;;;;4.53;2.40;;;;;;;;;;4982623;28;20368;-62
2022/02/14 03:35:23;;;;;;;3.43;2.70;;;;;;;;;;4982986;28;20133;-60
2022/02/14 03:37:49;;;;;;;4.20;3.00;;;;;;;;;;4982917;28;20098;-60
2022/02/14 03:40:14;;;;;;;3.67;2.72;;;;;;;;;;4982519;28;20277;-59
2022/02/14 03:42:40;;;;;;;3.67;2.70;;;;;;;;;;4990723;28;20417;-58
2022/02/14 03:45:05;;;;;;;3.42;2.50;;;;;;;;;;4990621;28;20054;-62
2022/02/14 03:47:30;;;;;;;3.45;2.30;;;;;;;;;;4981768;28;20135;-63
2022/02/14 03:49:55;;;;;;;3.47;2.43;;;;;;;;;;4963720;28;20030;-62
2022/02/14 03:52:21;;;;;;;3.87;2.60;;;;;;;;;;4977584;28;20294;-63
2022/02/14 03:54:46;;;;;;;3.53;2.60;;;;;;;;;;4964042;28;20760;-58
2022/02/14 03:57:11;;;;;;;3.90;2.50;;;;;;;;;;4975487;28;20516;-56
2022/02/14 03:59:38;;;;;;;3.23;2.43;;;;;;;;;;4982894;28;20807;-62
2022/02/14 04:02:03;;;;;;;3.22;2.53;;;;;;;;;;4981518;28;20361;-61
2022/02/14 04:04:28;;;;;;;3.93;2.70;;;;;;;;;;4982544;28;20117;-61
2022/02/14 04:06:54;;;;;;;3.40;2.30;;;;;;;;;;4982589;28;20269;-63
2022/02/14 04:09:19;;;;;;;3.88;2.92;;;;;;;;;;4982701;28;20058;-55
2022/02/14 04:11:44;;;;;;;3.93;2.40;;;;;;;;;;4982032;28;20138;-55
2022/02/14 04:14:09;;;;;;;4.30;2.70;;;;;;;;;;4982248;28;20034;-54
2022/02/14 04:16:34;;;;;;;3.97;2.67;;;;;;;;;;4964739;28;20125;-54
2022/02/14 04:19:00;;;;;;;4.20;2.40;;;;;;;;;;4982549;28;20376;-54
2022/02/14 04:21:25;;;;;;;3.47;2.37;;;;;;;;;;4961960;28;20137;-56
2022/02/14 04:23:50;;;;;;;3.70;2.50;;;;;;;;;;4995616;28;20308;-61
2022/02/14 04:26:15;;;;;;;3.90;2.70;;;;;;;;;;4982202;28;20038;-61
2022/02/14 04:28:40;;;;;;;3.73;2.60;;;;;;;;;;4964423;28;20289;-57
2022/02/14 04:31:06;;;;;;;2.90;2.33;;;;;;;;;;4982337;28;20265;-61
2022/02/14 04:33:31;;;;;;;3.90;2.73;;;;;;;;;;4981764;28;20787;-59
2022/02/14 04:35:56;;;;;;;3.40;2.47;;;;;;;;;;4981868;28;20102;-57
2022/02/14 04:38:21;;;;;;;4.00;2.40;;;;;;;;;;4982029;28;20289;-61
2022/02/14 04:40:47;;;;;;;3.87;2.57;;;;;;;;;;4981825;28;20030;-63
2022/02/14 04:43:12;;;;;;;3.57;2.33;;;;;;;;;;4993755;28;20404;-61
2022/02/14 04:45:37;;;;;;;3.17;2.08;;;;;;;;;;4985771;28;20109;-60
2022/02/14 04:48:03;;;;;;;3.63;2.28;;;;;;;;;;4981516;28;20073;-59
2022/02/14 04:50:28;;;;;;;3.50;2.38;;;;;;;;;;4981797;28;20022;-62
2022/02/14 04:52:53;;;;;;;3.70;2.43;;;;;;;;;;4980257;28;20117;-59
2022/02/14 04:55:19;;;;;;;3.75;2.53;;;;;;;;;;4981516;28;20270;-63
2022/02/14 04:57:44;;;;;;;3.15;2.22;;;;;;;;;;4981770;28;20528;-61
2022/02/14 05:00:10;;;;;;;3.83;2.30;;;;;;;;;;4981945;28;20026;-62
2022/02/14 05:02:35;;;;;;;3.72;2.55;;;;;;;;;;4988344;28;20073;-60
2022/02/14 05:05:01;;;;;;;3.30;2.30;;;;;;;;;;4990680;28;20774;-56
2022/02/14 05:07:26;;;;;;;2.80;2.13;;;;;;;;;;4981952;28;20273;-55
2022/02/14 05:09:51;;;;;;;3.80;2.50;;;;;;;;;;4981553;28;20273;-57
2022/02/14 05:12:16;;;;;;;3.23;2.30;;;;;;;;;;4981299;28;20281;-59
2022/02/14 05:14:42;;;;;;;4.17;2.70;;;;;;;;;;4981513;28;20027;-56
2022/02/14 05:17:07;;;;;;;3.88;2.40;;;;;;;;;;4981291;28;20040;-60
2022/02/14 05:19:32;;;;;;;3.87;2.23;;;;;;;;;;4981970;28;20465;-60
2022/02/14 05:21:57;;;;;;;3.73;2.43;;;;;;;;;;4983532;28;20281;-61
2022/02/14 05:24:22;;;;;;;3.30;2.40;;;;;;;;;;4996009;28;20045;-61
2022/02/14 05:26:48;;;;;;;4.10;2.57;;;;;;;;;;4981383;28;20285;-61
2022/02/14 05:29:13;;;;;;;4.17;2.20;;;;;;;;;;4981661;28;20302;-60
2022/02/14 05:31:38;;;;;;;2.47;1.97;;;;;;;;;;4960186;28;20270;-55
2022/02/14 05:34:03;;;;;;;3.47;2.40;;;;;;;;;;4980749;28;20035;-58
2022/02/14 05:36:29;;;;;;;3.17;2.25;;;;;;;;;;4965977;28;20022;-59
2022/02/14 05:38:54;;;;;;;3.47;2.60;;;;;;;;;;4971830;28;20082;-63
2022/02/14 05:41:21;;;;;;;3.83;2.50;;;;;;;;;;4969159;28;20274;-60
2022/02/14 05:43:47;;;;;;;3.80;2.40;;;;;;;;;;4978775;28;20035;-62
2022/02/14 05:46:15;;;;;;;3.30;2.63;;;;;;;;;;4979503;28;20032;-62
2022/02/14 05:48:43;;;;;;;2.85;2.10;;;;;;;;;;4973720;28;20868;-62
2022/02/14 05:51:09;;;;;;;3.70;2.30;;;;;;;;;;4980643;28;20022;-62
2022/02/14 05:53:35;;;;;;;3.28;2.30;;;;;;;;;;4980478;28;20040;-63
2022/02/14 05:56:00;;;;;;;3.03;2.08;;;;;;;;;;4979872;28;20754;-62
2022/02/14 05:58:25;;;;;;;3.28;2.42;;;;;;;;;;4980376;28;20061;-63
2022/02/14 06:00:50;;;;;;;3.00;2.10;;;;;;;;;;4980865;28;20026;-59
2022/02/14 06:03:15;;;;;;;3.00;2.30;;;;;;;;;;4980975;28;20390;-60
2022/02/14 06:05:41;;;;;;;3.70;2.37;;;;;;;;;;4983757;28;20364;-59
2022/02/14 06:08:06;;;;;;;3.63;2.60;;;;;;;;;;4984228;28;20068;-58
2022/02/14 06:10:31;;;;;;;3.20;2.63;;;;;;;;;;4983436;28;20172;-61
2022/02/14 06:12:56;;;;;;;2.75;1.98;;;;;;;;;;4982567;28;20273;-58
2022/02/14 06:15:22;;;;;;;3.13;2.20;;;;;;;;;;4983888;28;20762;-62
2022/02/14 06:17:47;;;;;;;4.00;2.80;;;;;;;;;;4983237;28;20481;-59
2022/02/14 06:20:15;;;;;;;4.27;2.20;;;;;;;;;;4983868;28;20026;-57
2022/02/14 06:22:40;;;;;;;3.40;2.40;;;;;;;;;;4984775;28;21005;-62
2022/02/14 06:25:05;;;;;;;3.75;2.50;;;;;;;;;;4980860;28;20035;-58
2022/02/14 06:27:31;;;;;;;3.83;2.60;;;;;;;;;;4965671;28;20076;-60
2022/02/14 06:29:56;;;;;;;3.30;2.43;;;;;;;;;;4964162;28;20057;-60
2022/02/14 06:32:21;;;;;;;5.03;2.57;;;;;;;;;;4983508;28;20354;-61
2022/02/14 06:34:46;;;;;;;3.38;2.38;;;;;;;;;;4983839;28;20113;-61
2022/02/14 06:37:12;;;;;;;4.37;2.50;;;;;;;;;;4983541;28;20034;-62
2022/02/14 06:39:37;;;;;;;3.88;2.65;;;;;;;;;;4983944;28;20281;-61
2022/02/14 06:42:02;;;;;;;4.13;2.40;;;;;;;;;;4985635;28;20109;-61
2022/02/14 06:44:28;;;;;;;3.70;2.50;;;;;;;;;;4997455;28;20332;-61
2022/02/14 06:46:54;;;;;;;3.80;2.07;;;;;;;;;;4982960;28;20126;-59
2022/02/14 06:49:19;;;;;;;2.92;2.30;;;;;;;;;;4983938;28;20037;-62
2022/02/14 06:51:44;;;;;;;3.90;2.40;;;;;;;;;;4984083;28;20089;-60
2022/02/14 06:54:10;;;;;;;3.33;2.67;;;;;;;;;;4981947;28;20351;-61
2022/02/14 06:56:35;;;;;;;10.83;3.27;;;;;;;;;;4983353;28;21203;-61
2022/02/14 06:59:00;;;;;;;6.63;3.37;;;;;;;;;;4981559;28;20515;-62
2022/02/14 07:01:25;;;;;;;8.00;3.40;;;;;;;;;;4968991;28;20274;-57
2022/02/14 07:03:51;;;;;;;11.57;3.20;;;;;;;;;;4977495;28;20053;-60
2022/02/14 07:06:17;;;;;;;11.10;4.23;;;;;;;;;;4982051;28;20329;-62
2022/02/14 07:08:44;;;;;;;8.13;3.22;;;;;;;;;;4982879;28;20269;-60
2022/02/14 07:11:09;;;;;;;19.38;3.92;;;;;;;;;;4982672;28;20019;-61
2022/02/14 07:13:34;;;;;;;24.40;4.63;;;;;;;;;;4983023;28;20022;-62
2022/02/14 07:15:59;;;;;;;16.70;3.80;;;;;;;;;;4981886;28;20077;-61
2022/02/14 07:18:25;;;;;;;18.40;4.37;;;;;;;;;;4981203;28;20281;-61
2022/02/14 07:20:50;;;;;;;19.17;4.28;;;;;;;;;;4980017;28;20258;-59
2022/02/14 07:23:15;;;;;;;10.30;3.80;;;;;;;;;;4959664;28;20886;-60
2022/02/14 07:25:40;;;;;;;10.60;3.77;;;;;;;;;;4964335;28;20026;-60
2022/02/14 07:28:06;;;;;;;12.70;3.97;;;;;;;;;;4962896;28;20023;-60
2022/02/14 07:30:31;;;;;;;12.73;3.90;;;;;;;;;;4969180;28;20038;-60
2022/02/14 07:32:56;;;;;;;21.60;4.40;;;;;;;;;;4973242;28;20019;-60
2022/02/14 07:35:21;;;;;;;13.43;4.28;;;;;;;;;;4976258;28;20061;-63
2022/02/14 07:37:47;;;;;;;16.23;5.13;;;;;;;;;;4982847;28;20079;-61
2022/02/14 07:40:12;;;;;;;14.85;4.25;;;;;;;;;;4961906;28;20054;-60
2022/02/14 07:42:38;;;;;;;16.73;4.65;;;;;;;;;;4976953;28;20416;-62
2022/02/14 07:45:04;;;;;;;17.02;4.90;;;;;;;;;;4972381;28;20057;-62
2022/02/14 07:47:29;;;;;;;14.38;4.47;;;;;;;;;;4981097;28;20520;-60
2022/02/14 07:49:54;;;;;;;15.67;4.83;;;;;;;;;;4962472;28;20026;-61
2022/02/14 07:52:19;;;;;;;14.65;4.25;;;;;;;;;;4969607;28;20025;-62
2022/02/14 07:54:45;;;;;;;21.20;5.70;;;;;;;;;;4982044;28;20050;-60
2022/02/14 07:57:10;;;;;;;14.02;4.65;;;;;;;;;;4981293;28;20343;-59
2022/02/14 07:59:35;;;;;;;15.00;5.03;;;;;;;;;;4981973;28;20583;-62
2022/02/14 08:02:00;;;;;;;16.10;5.10;;;;;;;;;;4983301;28;20041;-59
2022/02/14 08:04:26;;;;;;;18.17;5.57;;;;;;;;;;4996701;28;20042;-61
2022/02/14 08:06:51;;;;;;;18.07;4.90;;;;;;;;;;4981025;28;21188;-60
2022/02/14 08:09:17;;;;;;;15.30;4.40;;;;;;;;;;4936145;28;20833;-62
2022/02/14 08:11:42;;;;;;;20.88;5.43;;;;;;;;;;4978145;28;20023;-60
2022/02/14 08:14:07;;;;;;;17.35;4.50;;;;;;;;;;4981692;28;20181;-59
2022/02/14 08:16:35;;;;;;;16.83;7.93;;;;;;;;;;4981742;28;20054;-59
2022/02/14 08:19:01;;;;;;;15.52;6.40;;;;;;;;;;4970656;28;20564;-60
2022/02/14 08:21:26;;;;;;;17.35;6.03;;;;;;;;;;4957113;28;20030;-58
2022/02/14 08:23:51;;;;;;;16.90;5.47;;;;;;;;;;4997577;28;20037;-58
2022/02/14 08:26:17;;;;;;;15.20;5.53;;;;;;;;;;4980250;28;20026;-60
2022/02/14 08:28:42;;;;;;;15.43;5.13;;;;;;;;;;4981614;28;20034;-60
2022/02/14 08:31:07;;;;;;;14.67;4.73;;;;;;;;;;4981906;28;20018;-60
2022/02/14 08:33:32;;;;;;;12.43;5.60;;;;;;;;;;4980788;28;21102;-58
2022/02/14 08:35:57;;;;;;;12.63;4.90;;;;;;;;;;4981623;28;20485;-60
2022/02/14 08:38:23;;;;;;;17.20;5.10;;;;;;;;;;4981316;28;20327;-58
2022/02/14 08:40:48;;;;;;;16.67;6.00;;;;;;;;;;4980189;28;20269;-55
2022/02/14 08:43:13;;;;;;;15.07;5.63;;;;;;;;;;4981245;28;20048;-56
2022/02/14 08:45:38;;;;;;;17.33;5.00;;;;;;;;;;4984785;28;20022;-60
2022/02/14 08:48:04;;;;;;;10.50;4.40;;;;;;;;;;4972527;28;20290;-57
2022/02/14 08:50:29;;;;;;;13.07;4.97;;;;;;;;;;4961986;28;20302;-59
2022/02/14 08:53:00;;;;;;;13.63;5.32;;;;;;;;;;4970615;28;20092;-59
2022/02/14 08:55:26;;;;;;;24.60;15.52;;;;;;;;;;4967417;28;20062;-57
2022/02/14 08:57:51;;;;;;;17.48;6.82;;;;;;;;;;4977928;28;20124;-61
2022/02/14 09:00:16;;;;;;;12.67;6.20;;;;;;;;;;4981540;28;20026;-60
2022/02/14 09:02:42;;;;;;;13.80;5.90;;;;;;;;;;4988090;28;20045;-60
2022/02/14 09:05:07;;;;;;;17.07;5.70;;;;;;;;;;4990676;28;20280;-61
2022/02/14 09:07:32;;;;;;;11.77;5.05;;;;;;;;;;4981388;28;20352;-59
2022/02/14 09:09:57;;;;;;;11.70;5.38;;;;;;;;;;4954263;28;20567;-62
2022/02/14 09:12:23;;;;;;;16.02;5.75;;;;;;;;;;4972839;28;20114;-54
2022/02/14 09:14:49;;;;;;;11.88;4.90;;;;;;;;;;4983517;28;20031;-60
2022/02/14 09:17:14;;;;;;;14.52;5.28;;;;;;;;;;4960847;28;20037;-55
2022/02/14 09:19:39;;;;;;;13.00;4.77;;;;;;;;;;4964955;28;20414;-58
2022/02/14 09:22:04;;;;;;;12.18;5.53;;;;;;;;;;4976439;28;20301;-60
2022/02/14 09:24:30;;;;;;;11.30;5.33;;;;;;;;;;4995803;28;20112;-59
2022/02/14 09:26:56;;;;;;;14.90;5.32;;;;;;;;;;4968093;28;20619;-58
2022/02/14 09:29:22;;;;;;;10.70;4.67;;;;;;;;;;4976676;28;20117;-60
2022/02/14 09:31:47;;;;;;;9.55;4.82;;;;;;;;;;4965379;28;20266;-55
2022/02/14 09:34:13;;;;;;;13.88;5.55;;;;;;;;;;4959862;28;20030;-58
2022/02/14 09:36:38;;;;;;;11.00;5.28;;;;;;;;;;4981206;28;20026;-57
2022/02/14 09:39:04;;;;;;;9.82;5.18;;;;;;;;;;4983868;28;20480;-60
2022/02/14 09:41:29;;;;;;;9.25;5.38;;;;;;;;;;4967252;28;20141;-60
2022/02/14 09:43:54;;;;;;;11.43;5.57;;;;;;;;;;4978020;28;20043;-56
2022/02/14 09:46:21;;;;;;;11.00;5.53;;;;;;;;;;4983572;28;20294;-61
2022/02/14 09:48:46;;;;;;;11.13;5.65;;;;;;;;;;4971627;28;20030;-56
2022/02/14 09:51:12;;;;;;;12.75;5.93;;;;;;;;;;4966674;28;20704;-61
2022/02/14 09:53:38;;;;;;;10.68;5.30;;;;;;;;;;4984827;28;20485;-59
2022/02/14 09:56:04;;;;;;;12.68;5.97;;;;;;;;;;4963302;28;20500;-58
2022/02/14 09:58:29;;;;;;;10.00;5.43;;;;;;;;;;4967351;28;20474;-62
2022/02/14 10:00:55;;;;;;;12.73;6.00;;;;;;;;;;4964201;28;20029;-61
2022/02/14 10:03:23;;;;;;;10.38;6.22;;;;;;;;;;4973516;28;20033;-61
2022/02/14 10:05:52;;;;;;;11.77;6.70;;;;;;;;;;4967220;28;20501;-60
2022/02/14 10:08:38;;;;;;;16.45;8.15;;;;;;;;;;4966772;28;20504;-62
2022/02/14 10:11:21;;;;;;;12.40;6.78;;;;;;;;;;4965380;28;20034;-58
2022/02/14 10:13:50;;;;;;;13.45;6.85;;;;;;;;;;4972164;28;20606;-62
2022/02/14 10:16:16;;;;;;;11.27;7.07;;;;;;;;;;4965393;28;20030;-62
2022/02/14 10:18:41;;;;;;;14.60;7.80;;;;;;;;;;4963848;28;20031;-61
2022/02/14 10:21:14;;;;;;;14.88;8.32;;;;;;;;;;4963243;28;20274;-62
2022/02/14 10:23:55;;;;;;;11.27;7.78;;;;;;;;;;4955314;28;20105;-61
2022/02/14 10:26:20;;;;;;;12.98;7.82;;;;;;;;;;4965492;28;20122;-63
2022/02/14 10:28:46;;;;;;;13.23;8.07;;;;;;;;;;4957753;28;20101;-63
2022/02/14 10:31:11;;;;;;;14.02;8.20;;;;;;;;;;4964899;28;20109;-60
2022/02/14 10:33:47;;;;;;;10.93;7.83;;;;;;;;;;4963989;28;20117;-62
2022/02/14 10:36:12;;;;;;;12.07;7.07;;;;;;;;;;4964810;28;20124;-62
2022/02/14 10:38:37;;;;;;;11.05;7.50;;;;;;;;;;4964840;28;20033;-60
2022/02/14 10:41:12;;;;;;;15.35;7.80;;;;;;;;;;4964229;28;20011;-61
2022/02/14 10:43:37;;;;;;;10.68;7.05;;;;;;;;;;4964567;28;20575;-61
2022/02/14 10:46:03;;;;;;;10.30;7.10;;;;;;;;;;4953777;28;20115;-59
2022/02/14 10:48:32;;;;;;;10.23;6.63;;;;;;;;;;4976193;28;21148;-57
2022/02/14 10:50:57;;;;;;;14.23;7.67;;;;;;;;;;4984122;28;20015;-59
2022/02/14 10:53:22;;;;;;;9.95;7.57;;;;;;;;;;4977705;28;20613;-59
2022/02/14 10:55:53;;;;;;;9.70;6.53;;;;;;;;;;4973031;28;20054;-58
2022/02/14 10:58:18;;;;;;;9.77;6.50;;;;;;;;;;4980307;28;20053;-60
2022/02/14 11:00:43;;;;;;;9.53;6.60;;;;;;;;;;4961729;28;20057;-60
2022/02/14 11:03:11;;;;;;;7.90;6.60;;;;;;;;;;4973377;28;20129;-60
2022/02/14 11:05:38;;;;;;;9.82;6.82;;;;;;;;;;4983152;28;20026;-56
2022/02/14 11:08:04;;;;;;;11.23;6.35;;;;;;;;;;4983238;28;20030;-58
2022/02/14 11:10:29;;;;;;;10.57;6.95;;;;;;;;;;4978557;28;20555;-59
2022/02/14 11:12:54;;;;;;;9.38;6.32;;;;;;;;;;4966063;28;20053;-59
2022/02/14 11:15:23;;;;;;;9.60;6.93;;;;;;;;;;4966948;28;20892;-61
2022/02/14 11:17:48;;;;;;;9.38;6.20;;;;;;;;;;4966292;28;20274;-65
2022/02/14 11:20:14;;;;;;;8.85;6.82;;;;;;;;;;4967873;28;20073;-61
2022/02/14 11:22:40;;;;;;;8.23;6.13;;;;;;;;;;4965302;28;20508;-62
2022/02/14 11:25:09;;;;;;;10.10;6.47;;;;;;;;;;4934060;28;20114;-62
2022/02/14 11:27:35;;;;;;;8.90;6.55;;;;;;;;;;4968218;28;20026;-61
2022/02/14 11:30:02;;;;;;;8.55;7.00;;;;;;;;;;4970026;28;20018;-60
2022/02/14 11:32:27;;;;;;;8.95;6.72;;;;;;;;;;4965200;28;20489;-63
2022/02/14 11:34:57;;;;;;;8.87;6.83;;;;;;;;;;4971028;28;20079;-59
2022/02/14 11:37:22;;;;;;;8.07;6.32;;;;;;;;;;4973240;28;20270;-58
2022/02/14 11:39:47;;;;;;;8.50;6.40;;;;;;;;;;4975929;28;20041;-60
2022/02/14 11:42:13;;;;;;;8.77;6.70;;;;;;;;;;4964442;28;20021;-61
2022/02/14 11:44:38;;;;;;;8.65;5.95;;;;;;;;;;4982540;28;20331;-60
2022/02/14 11:47:03;;;;;;;8.03;6.37;;;;;;;;;;4981591;28;20529;-63
2022/02/14 11:49:36;;;;;;;8.90;6.43;;;;;;;;;;4982601;28;20037;-62
2022/02/14 11:52:02;;;;;;;8.25;6.40;;;;;;;;;;4959292;28;20527;-63
2022/02/14 11:54:34;;;;;;;7.88;6.28;;;;;;;;;;4965093;28;20026;-61
2022/02/14 11:57:19;;;;;;;8.60;6.65;;;;;;;;;;4961235;28;20030;-62
2022/02/14 11:59:44;;;;;;;8.73;6.28;;;;;;;;;;4970752;28;20027;-62
2022/02/14 12:02:10;;;;;;;7.57;6.10;;;;;;;;;;4961329;28;20846;-61
2022/02/14 12:04:36;;;;;;;7.57;5.93;;;;;;;;;;4967907;28;20033;-63
2022/02/14 12:07:17;;;;;;;8.90;6.57;;;;;;;;;;4982760;28;20018;-63
2022/02/14 12:10:00;;;;;;;7.68;6.47;;;;;;;;;;4979966;28;20139;-61
2022/02/14 12:12:51;;;;;;;8.00;6.60;;;;;;;;;;4966057;28;20018;-63
2022/02/14 12:20:44;;;;;;;7.90;6.00;;;;;;;;;;4983154;28;20037;-61
2022/02/14 12:23:10;;;;;;;8.35;5.85;;;;;;;;;;4982708;28;20042;-63
2022/02/14 12:25:35;;;;;;;7.80;5.87;;;;;;;;;;4981921;28;20026;-63
2022/02/14 12:28:06;;;;;;;8.25;6.50;;;;;;;;;;4982562;28;20349;-62
2022/02/14 12:30:32;;;;;;;7.90;6.30;;;;;;;;;;4982915;28;20062;-62
2022/02/14 12:33:00;;;;;;;8.30;6.60;;;;;;;;;;4981729;28;20046;-62
2022/02/14 12:35:35;;;;;;;8.00;6.35;;;;;;;;;;4970379;28;20039;-62
2022/02/14 12:38:01;;;;;;;9.40;6.25;;;;;;;;;;4962278;28;20039;-62
2022/02/14 12:40:43;;;;;;;9.20;6.63;;;;;;;;;;4969121;28;20412;-62
2022/02/14 12:43:08;;;;;;;7.88;6.15;;;;;;;;;;4963539;28;20585;-61
2022/02/14 12:45:34;;;;;;;10.00;6.67;;;;;;;;;;4975654;28;20063;-60
2022/02/14 12:47:59;;;;;;;8.32;5.88;;;;;;;;;;4961583;28;20290;-65
2022/02/14 12:50:25;;;;;;;8.83;6.03;;;;;;;;;;4973767;28;20084;-64
2022/02/14 12:52:50;;;;;;;10.80;6.43;;;;;;;;;;4975186;28;20285;-58
2022/02/14 12:55:15;;;;;;;7.45;5.63;;;;;;;;;;4972804;28;20034;-62
2022/02/14 12:57:45;;;;;;;7.17;6.30;;;;;;;;;;4974522;28;20551;-62
2022/02/14 13:00:20;;;;;;;7.43;5.88;;;;;;;;;;4980642;28;20034;-60
2022/02/14 13:03:04;;;;;;;8.15;6.13;;;;;;;;;;4981045;28;20488;-64
2022/02/14 13:05:31;;;;;;;8.52;5.95;;;;;;;;;;4977506;28;20109;-57
2022/02/14 13:07:57;;;;;;;7.90;6.13;;;;;;;;;;4978408;28;20057;-62
2022/02/14 13:10:23;;;;;;;8.68;6.35;;;;;;;;;;4981332;28;20010;-58
2022/02/14 13:12:58;;;;;;;8.38;6.07;;;;;;;;;;4973761;28;20026;-61
2022/02/14 13:15:23;;;;;;;8.63;6.22;;;;;;;;;;4963762;28;20112;-64
2022/02/14 13:17:48;;;;;;;7.50;6.00;;;;;;;;;;4963401;28;20980;-61
2022/02/14 13:20:13;;;;;;;8.18;5.90;;;;;;;;;;4965979;28;20277;-63
2022/02/14 13:22:39;;;;;;;8.50;5.88;;;;;;;;;;4963628;28;20015;-61
2022/02/14 13:25:18;;;;;;;7.82;6.00;;;;;;;;;;4963440;28;20030;-62
2022/02/14 13:27:43;;;;;;;7.38;5.47;;;;;;;;;;4963566;28;20410;-61
2022/02/14 13:30:09;;;;;;;8.70;6.43;;;;;;;;;;4961413;28;20029;-60
2022/02/14 13:32:36;;;;;;;7.70;6.03;;;;;;;;;;4963672;28;20346;-59
2022/02/14 13:35:01;;;;;;;7.25;5.88;;;;;;;;;;4962750;28;20517;-60
2022/02/14 13:37:27;;;;;;;8.68;6.65;;;;;;;;;;4963583;28;20026;-61
2022/02/14 13:39:55;;;;;;;8.25;5.72;;;;;;;;;;4976826;28;20105;-58
2022/02/14 13:42:21;;;;;;;7.82;5.95;;;;;;;;;;4981617;28;20026;-60
2022/02/14 13:44:58;;;;;;;7.57;6.00;;;;;;;;;;4981254;28;20038;-62
2022/02/14 13:47:24;;;;;;;6.75;5.63;;;;;;;;;;4980021;28;20706;-62
2022/02/14 13:49:49;;;;;;;7.60;5.93;;;;;;;;;;4962253;28;20058;-61
2022/02/14 13:52:24;;;;;;;7.38;6.00;;;;;;;;;;4978468;28;20085;-63
2022/02/14 13:54:58;;;;;;;7.10;5.90;;;;;;;;;;4967709;28;20591;-60
2022/02/14 13:57:23;;;;;;;8.27;6.18;;;;;;;;;;4980358;28;20122;-61
2022/02/14 13:59:49;;;;;;;9.25;6.20;;;;;;;;;;4981583;28;20483;-61
2022/02/14 14:02:17;;;;;;;8.10;6.27;;;;;;;;;;4980542;28;20537;-59
2022/02/14 14:04:42;;;;;;;6.78;5.72;;;;;;;;;;4974206;28;20054;-59
2022/02/14 14:07:08;;;;;;;7.85;5.90;;;;;;;;;;4961528;28;20125;-59
2022/02/14 14:09:44;;;;;;;7.85;5.90;;;;;;;;;;4961606;28;20027;-60
2022/02/14 14:12:10;;;;;;;7.55;5.80;;;;;;;;;;4970917;28;20031;-60
2022/02/14 14:14:36;;;;;;;8.20;6.32;;;;;;;;;;4961657;28;20019;-60
2022/02/14 14:17:05;;;;;;;7.10;5.97;;;;;;;;;;4961256;28;20045;-58
2022/02/14 14:19:30;;;;;;;7.35;6.10;;;;;;;;;;4962341;28;20905;-61
2022/02/14 14:21:56;;;;;;;6.70;5.82;;;;;;;;;;4974504;28;20022;-60
2022/02/14 14:24:21;;;;;;;7.57;5.90;;;;;;;;;;4964204;28;21011;-60
2022/02/14 14:26:46;;;;;;;9.70;6.37;;;;;;;;;;4975152;28;20408;-59
2022/02/14 14:29:13;;;;;;;9.73;5.80;;;;;;;;;;4978331;28;20123;-62
2022/02/14 14:31:38;;;;;;;8.32;6.45;;;;;;;;;;4983964;28;20026;-62
2022/02/14 14:34:03;;;;;;;6.63;5.50;;;;;;;;;;4983653;28;20040;-60
2022/02/14 14:36:29;;;;;;;7.33;5.70;;;;;;;;;;4984453;28;20113;-60
2022/02/14 14:38:54;;;;;;;8.70;6.67;;;;;;;;;;4966569;28;20117;-60